Aérodrome :
LOGIN :

S'inscrire | Disclaimer

   EN    FR    IT 

 










Légende :    VFR   VFR Marginal   IFR   IFR Intensif   IFR Très Intensif
Visi : 
Plafond : 
>= 8 km
>= 3000ft
5 à 8 km
1000 à 3000 ft
1500m à 5 km
500 à 1000 ft
800 à 1500m
200 à 500 ft
< 800m
< 200 ft
Symboles :   Orages  Brouillard  Fortes neiges  Fortes précipitations  Vent > 20 kt
SIGMETs :   Divers  Orages  Givrage  Turbulence  Onde Orograph.  Cendres Volcan.






- Altitude de l'aérodrome : 106 ft
- Code IATA : NRN


EDLV - Weeze

DERNIER METAR :
  • 291120Z 16010KT 9999 BKN020 09/05 Q1010

METARs EXPIRÉS :
  • 291050Z 16010KT 9999 BKN020 09/05 Q1010
  • 291020Z 16011KT 9999 BKN019 09/05 Q1011
  • 290950Z 16010KT CAVOK 08/05 Q1011
  • 290920Z 17008KT 9999 FEW038 SCT049 07/04 Q1011
  • 290850Z 17010KT 9999 OVC018 07/04 Q1012
  • 290820Z 16009KT 9999 SCT018 BKN036 OVC049 06/04 Q1012 REDZ
  • 290750Z 15009KT 9999 -DZ SCT018 06/03 Q1012
  • 290720Z 15009KT 9999 SCT019 06/03 Q1012
  • 290650Z 15009KT 9999 OVC019 06/03 Q1012

TAF TAF EDLV
Valide du 29 à 12h jusqu'au 01 à 12h UTC


291100Z 2912/0112 17010KT 9999 BKN015
TEMPO 2912/2918 4000 -RADZ BKN012
TEMPO 0103/0108 23007KT 3000 -RADZ BKN010



MET'MAP, la Météo Aéronautique d'un coup d'oeil ! - Copyright ORBIFLY Décembre 2007 - Disclaimer

ORBIFLY MET'MAP TEAM :

Programmation & Développement : Alexandra Zaïnal
Sur une idée originale de : Baudouin d'Aumeries
Soutien technique & logistique : Manuel Goepfert
Assistance : Marc-Olivier Méhu




SOURCES & CREDITS :

   NOAA